createdAt,value
2023-01-13T00:00:26.208Z,5.97
2023-01-13T00:02:52.505Z,5.22
2023-01-13T00:05:18.802Z,5.53
2023-01-13T00:07:46.352Z,5.25
2023-01-13T00:10:12.617Z,5.68
2023-01-13T00:12:39.669Z,5.70
2023-01-13T00:15:06.475Z,5.60
2023-01-13T00:17:32.703Z,4.93
2023-01-13T00:19:58.965Z,5.53
2023-01-13T00:22:25.234Z,6.32
2023-01-13T00:24:51.469Z,6.05
2023-01-13T00:27:17.693Z,6.28
2023-01-13T00:29:44.058Z,5.30
2023-01-13T00:32:10.306Z,6.45
2023-01-13T00:34:36.591Z,6.88
2023-01-13T00:37:02.860Z,6.43
2023-01-13T00:39:29.174Z,6.55
2023-01-13T00:42:13.940Z,6.47
2023-01-13T00:44:40.181Z,7.03
2023-01-13T00:47:06.548Z,5.30
2023-01-13T00:49:32.775Z,6.20
2023-01-13T00:51:58.995Z,5.97
2023-01-13T00:54:25.299Z,4.90
2023-01-13T00:56:51.538Z,5.88
2023-01-13T00:59:18.727Z,6.68
2023-01-13T01:01:45.083Z,5.13
2023-01-13T01:04:12.030Z,6.15
2023-01-13T01:06:38.332Z,5.18
2023-01-13T01:09:05.031Z,5.57
2023-01-13T01:11:32.096Z,5.25
2023-01-13T01:14:00.309Z,5.93
2023-01-13T01:16:28.084Z,5.70
2023-01-13T01:18:55.089Z,5.25
2023-01-13T01:21:22.106Z,6.32
2023-01-13T01:23:48.406Z,6.63
2023-01-13T01:26:15.940Z,5.57
2023-01-13T01:28:42.542Z,5.93
2023-01-13T01:31:09.874Z,5.88
2023-01-13T01:33:36.237Z,5.57
2023-01-13T01:36:02.901Z,5.72
2023-01-13T01:38:29.329Z,5.25
2023-01-13T01:40:55.867Z,6.75
2023-01-13T01:44:01.540Z,6.05
2023-01-13T01:46:40.954Z,6.05
2023-01-13T01:49:07.199Z,5.80
2023-01-13T01:51:36.504Z,4.82
2023-01-13T01:54:04.764Z,6.20
2023-01-13T01:56:32.342Z,5.28
2023-01-13T01:58:58.656Z,6.38
2023-01-13T02:01:25.061Z,6.97
2023-01-13T02:04:09.466Z,5.93
2023-01-13T02:06:35.715Z,6.15
2023-01-13T02:09:02.233Z,7.30
2023-01-13T02:11:48.300Z,5.55
2023-01-13T02:14:14.973Z,6.65
2023-01-13T02:16:45.682Z,6.80
2023-01-13T02:21:44.179Z,5.63
2023-01-13T02:24:41.029Z,5.18
2023-01-13T02:27:07.254Z,8.07
2023-01-13T02:30:07.312Z,4.75
2023-01-13T02:32:45.467Z,5.60
2023-01-13T02:35:20.835Z,4.47
2023-01-13T02:37:48.351Z,5.63
2023-01-13T02:40:19.943Z,6.35
2023-01-13T02:43:20.446Z,5.95
2023-01-13T02:45:52.643Z,5.35
2023-01-13T02:48:20.618Z,5.97
2023-01-13T02:50:59.103Z,5.85
2023-01-13T02:53:27.993Z,5.35
2023-01-13T02:55:55.522Z,5.95
2023-01-13T02:58:27.260Z,6.00
2023-01-13T03:00:53.755Z,6.88
2023-01-13T03:03:20.124Z,5.93
2023-01-13T03:05:48.671Z,5.38
2023-01-13T03:08:33.322Z,5.65
2023-01-13T03:11:03.256Z,6.40
2023-01-13T03:13:45.931Z,6.90
2023-01-13T03:16:38.381Z,6.32
2023-01-13T03:19:04.669Z,6.32
2023-01-13T03:21:35.885Z,5.50
2023-01-13T03:24:14.509Z,6.90
2023-01-13T03:26:44.457Z,5.75
2023-01-13T03:29:49.039Z,6.32
2023-01-13T03:32:20.265Z,5.95
2023-01-13T03:34:48.891Z,5.90
2023-01-13T03:37:16.735Z,6.30
2023-01-13T03:39:45.760Z,5.60
2023-01-13T03:42:15.322Z,5.40
2023-01-13T03:44:46.159Z,5.30
2023-01-13T03:47:12.403Z,5.20
2023-01-13T03:49:48.088Z,6.10
2023-01-13T03:52:18.844Z,6.47
2023-01-13T03:54:48.169Z,5.82
2023-01-13T03:57:15.807Z,5.75
2023-01-13T03:59:43.927Z,5.28
2023-01-13T04:02:17.458Z,6.32
2023-01-13T04:05:13.345Z,6.25
2023-01-13T04:07:58.067Z,4.45
2023-01-13T04:10:28.609Z,4.68
2023-01-13T04:13:01.156Z,4.57
2023-01-13T04:15:36.162Z,4.22
2023-01-13T04:18:22.734Z,3.75
2023-01-13T04:20:50.062Z,4.47
2023-01-13T04:23:17.041Z,4.03
2023-01-13T04:25:44.712Z,4.15
2023-01-13T04:28:11.488Z,3.15
2023-01-13T04:30:38.086Z,3.33
2023-01-13T04:33:05.335Z,2.58
2023-01-13T04:35:31.927Z,2.80
2023-01-13T04:38:00.397Z,2.85
2023-01-13T04:40:26.784Z,2.97
2023-01-13T04:42:53.025Z,2.83
2023-01-13T04:45:19.289Z,2.33
2023-01-13T04:47:45.796Z,2.17
2023-01-13T04:50:12.260Z,1.90
2023-01-13T04:52:38.827Z,2.88
2023-01-13T04:55:05.322Z,1.95
2023-01-13T04:57:33.239Z,1.70
2023-01-13T04:59:59.608Z,2.15
2023-01-13T05:02:25.878Z,1.98
2023-01-13T05:04:52.210Z,2.60
2023-01-13T05:07:18.503Z,2.13
2023-01-13T05:09:44.743Z,2.78
2023-01-13T05:12:30.237Z,2.10
2023-01-13T05:15:15.327Z,2.65
2023-01-13T05:17:42.008Z,2.38
2023-01-13T05:20:09.152Z,3.10
2023-01-13T05:22:53.868Z,2.00
2023-01-13T05:25:22.962Z,3.00
2023-01-13T05:27:49.763Z,3.47
2023-01-13T05:30:16.589Z,3.17
2023-01-13T05:32:43.159Z,3.05
2023-01-13T05:35:09.532Z,3.10
2023-01-13T05:37:36.253Z,2.60
2023-01-13T05:40:21.415Z,2.70
2023-01-13T05:43:06.156Z,3.78
2023-01-13T05:45:32.403Z,2.45
2023-01-13T05:47:58.726Z,3.35
2023-01-13T05:50:24.976Z,3.35
2023-01-13T05:52:51.244Z,2.28
2023-01-13T05:55:17.546Z,3.65
2023-01-13T05:57:43.989Z,3.35
2023-01-13T06:00:10.549Z,3.35
2023-01-13T06:02:36.829Z,4.18
2023-01-13T06:05:03.175Z,4.50
2023-01-13T06:07:29.459Z,2.72
2023-01-13T06:09:55.696Z,2.35
2023-01-13T06:12:21.987Z,2.75
2023-01-13T06:14:48.290Z,2.92
2023-01-13T06:17:15.497Z,3.40
2023-01-13T06:19:42.123Z,3.40
2023-01-13T06:22:11.676Z,4.65
2023-01-13T06:24:37.932Z,4.30
2023-01-13T06:27:05.012Z,3.58
2023-01-13T06:29:31.250Z,3.75
2023-01-13T06:31:57.929Z,3.72
2023-01-13T06:34:24.217Z,3.90
2023-01-13T06:36:52.125Z,4.70
2023-01-13T06:39:20.084Z,3.72
2023-01-13T06:42:06.601Z,3.35
2023-01-13T06:44:33.130Z,4.10
2023-01-13T06:46:59.412Z,3.92
2023-01-13T06:49:25.740Z,3.90
2023-01-13T06:51:52.007Z,3.30
2023-01-13T06:54:18.421Z,3.85
2023-01-13T06:56:44.698Z,3.22
2023-01-13T06:59:11.016Z,3.80
2023-01-13T07:01:37.371Z,4.43
2023-01-13T07:04:04.049Z,4.00
2023-01-13T07:06:30.423Z,3.65
2023-01-13T07:08:56.686Z,4.35
2023-01-13T07:11:23.011Z,5.28
2023-01-13T07:14:07.886Z,3.90
2023-01-13T07:16:34.192Z,4.88
2023-01-13T07:19:00.534Z,3.58
2023-01-13T07:21:26.856Z,3.80
2023-01-13T07:23:53.160Z,3.30
2023-01-13T07:26:19.632Z,5.18
2023-01-13T07:28:45.940Z,4.50
2023-01-13T07:31:14.019Z,4.28
2023-01-13T07:33:40.308Z,5.38
2023-01-13T07:36:07.204Z,4.25
2023-01-13T07:38:33.785Z,3.60
2023-01-13T07:41:23.217Z,4.10
2023-01-13T07:43:49.981Z,4.43
2023-01-13T07:46:16.661Z,4.70
2023-01-13T07:48:43.309Z,4.53
2023-01-13T07:51:10.742Z,5.15
2023-01-13T07:53:37.151Z,3.75
2023-01-13T07:56:05.049Z,4.53
2023-01-13T07:58:32.455Z,3.47
2023-01-13T08:00:59.058Z,3.70
2023-01-13T08:03:26.479Z,3.95
2023-01-13T08:05:52.964Z,4.47
2023-01-13T08:08:19.637Z,4.10
2023-01-13T08:10:45.971Z,4.40
2023-01-13T08:13:20.970Z,4.68
2023-01-13T08:15:48.909Z,4.65
2023-01-13T08:18:15.641Z,4.40
2023-01-13T08:20:41.932Z,3.55
2023-01-13T08:23:08.220Z,5.30
2023-01-13T08:25:34.561Z,4.22
2023-01-13T08:28:00.908Z,3.75
2023-01-13T08:30:27.681Z,3.42
2023-01-13T08:32:54.271Z,4.40
2023-01-13T08:35:21.015Z,4.57
2023-01-13T08:37:47.841Z,4.07
2023-01-13T08:40:14.691Z,4.40
2023-01-13T08:42:41.370Z,4.68
2023-01-13T08:45:08.360Z,5.00
2023-01-13T08:47:34.969Z,3.97
2023-01-13T08:50:01.331Z,4.82
2023-01-13T08:52:28.624Z,4.60
2023-01-13T08:54:54.880Z,4.50
2023-01-13T08:57:21.198Z,5.60
2023-01-13T08:59:47.599Z,4.68
2023-01-13T09:02:15.284Z,5.40
2023-01-13T09:04:41.786Z,4.70
2023-01-13T09:07:08.838Z,4.85
2023-01-13T09:09:35.216Z,5.97
2023-01-13T09:12:20.155Z,4.35
2023-01-13T09:14:46.524Z,4.45
2023-01-13T09:17:12.819Z,5.53
2023-01-13T09:19:39.074Z,4.38
2023-01-13T09:22:05.385Z,5.03
2023-01-13T09:24:31.847Z,5.35
2023-01-13T09:26:58.238Z,4.60
2023-01-13T09:29:24.586Z,4.72
2023-01-13T09:31:51.979Z,4.60
2023-01-13T09:34:37.772Z,6.45
2023-01-13T09:37:04.875Z,5.55
2023-01-13T09:39:32.263Z,3.95
2023-01-13T09:42:20.796Z,4.45
2023-01-13T09:44:57.521Z,3.92
2023-01-13T09:47:23.813Z,3.63
2023-01-13T09:49:50.359Z,4.20
2023-01-13T09:52:21.526Z,4.40
2023-01-13T09:54:50.669Z,5.03
2023-01-13T09:57:18.012Z,4.25
2023-01-13T09:59:44.491Z,3.90
2023-01-13T10:02:10.703Z,5.20
2023-01-13T10:04:37.139Z,3.38
2023-01-13T10:07:05.702Z,3.83
2023-01-13T10:09:49.347Z,5.97
2023-01-13T10:12:38.506Z,4.13
2023-01-13T10:15:05.205Z,4.07
2023-01-13T10:17:39.970Z,4.55
2023-01-13T10:20:22.502Z,5.18
2023-01-13T10:22:58.007Z,3.55
2023-01-13T10:25:45.531Z,3.72
2023-01-13T10:28:13.308Z,4.65
2023-01-13T10:30:44.108Z,3.83
2023-01-13T10:33:12.939Z,3.58
2023-01-13T10:35:48.390Z,5.10
2023-01-13T10:38:19.524Z,5.43
2023-01-13T10:40:56.545Z,4.22
2023-01-13T10:43:23.263Z,4.55
2023-01-13T10:45:56.887Z,3.85
2023-01-13T10:48:23.155Z,4.75
2023-01-13T10:50:49.506Z,5.05
2023-01-13T10:53:17.752Z,4.10
2023-01-13T10:55:44.146Z,4.53
2023-01-13T10:58:17.868Z,4.80
2023-01-13T11:00:44.952Z,3.75
2023-01-13T11:03:21.275Z,5.47
2023-01-13T11:05:48.559Z,5.18
2023-01-13T11:08:17.069Z,4.47
2023-01-13T11:10:47.939Z,4.38
2023-01-13T11:13:19.580Z,4.75
2023-01-13T11:15:53.841Z,4.40
2023-01-13T11:18:40.284Z,4.28
2023-01-13T11:21:09.378Z,4.22
2023-01-13T11:23:38.215Z,3.88
2023-01-13T11:26:10.356Z,3.55
2023-01-13T11:28:45.514Z,4.60
2023-01-13T11:31:21.203Z,4.40
2023-01-13T11:33:50.547Z,3.63
2023-01-13T11:36:31.243Z,3.58
2023-01-13T11:41:23.678Z,3.60
2023-01-13T11:43:50.131Z,3.03
2023-01-13T11:46:16.602Z,3.33
2023-01-13T11:48:43.065Z,3.10
2023-01-13T11:51:18.003Z,3.60
2023-01-13T11:53:53.678Z,3.33
2023-01-13T11:56:20.045Z,2.97
2023-01-13T11:58:51.158Z,3.17
2023-01-13T12:01:26.313Z,3.67
2023-01-13T12:03:58.638Z,2.97
2023-01-13T12:06:31.699Z,3.22
2023-01-13T12:09:02.568Z,3.33
2023-01-13T12:12:11.204Z,3.00
2023-01-13T12:14:40.286Z,3.42
2023-01-13T12:17:09.839Z,2.72
2023-01-13T12:19:36.128Z,3.65
2023-01-13T12:22:11.782Z,3.20
2023-01-13T12:24:41.040Z,3.55
2023-01-13T12:27:13.414Z,3.22
2023-01-13T12:29:39.820Z,3.05
2023-01-13T12:32:10.290Z,3.30
2023-01-13T12:34:47.249Z,3.20
2023-01-13T12:37:13.569Z,4.07
2023-01-13T12:39:42.850Z,4.38
2023-01-13T12:42:30.750Z,3.58
2023-01-13T12:45:12.155Z,3.15
2023-01-13T12:47:40.071Z,3.20
2023-01-13T12:50:21.760Z,3.10
2023-01-13T12:52:52.490Z,4.07
2023-01-13T12:57:57.194Z,3.25
2023-01-13T13:00:23.686Z,2.85
2023-01-13T13:03:09.796Z,3.45
2023-01-13T13:05:54.253Z,2.75
2023-01-13T13:08:22.941Z,3.75
2023-01-13T13:11:06.525Z,4.10
2023-01-13T13:13:44.775Z,2.83
2023-01-13T13:16:26.207Z,2.95
2023-01-13T13:19:13.159Z,3.08
2023-01-13T13:21:58.012Z,3.63
2023-01-13T13:24:25.217Z,2.70
2023-01-13T13:26:51.520Z,3.10
2023-01-13T13:29:29.741Z,2.60
2023-01-13T13:32:11.298Z,2.67
2023-01-13T13:34:40.280Z,2.72
2023-01-13T13:37:17.346Z,1.92
2023-01-13T13:40:02.405Z,3.08
2023-01-13T13:42:39.087Z,3.85
2023-01-13T13:45:53.331Z,2.53
2023-01-13T13:48:30.673Z,2.90
2023-01-13T13:51:02.043Z,2.17
2023-01-13T13:53:31.368Z,3.65
2023-01-13T13:56:01.871Z,2.25
2023-01-13T13:58:29.627Z,2.72
2023-01-13T14:00:56.753Z,2.90
2023-01-13T14:03:26.951Z,3.28
2023-01-13T14:05:55.011Z,2.63
2023-01-13T14:08:21.804Z,3.90
2023-01-13T14:10:48.223Z,2.75
2023-01-13T14:13:18.509Z,2.95
2023-01-13T14:15:45.908Z,2.92
2023-01-13T14:18:19.439Z,2.95
2023-01-13T14:21:00.867Z,3.20
2023-01-13T14:23:31.285Z,2.88
2023-01-13T14:26:07.887Z,3.15
2023-01-13T14:28:36.553Z,3.42
2023-01-13T14:31:04.269Z,2.45
2023-01-13T14:33:38.872Z,2.75
2023-01-13T14:36:23.856Z,3.33
2023-01-13T14:39:14.713Z,3.63
2023-01-13T14:41:46.955Z,3.50
2023-01-13T14:44:13.193Z,2.75
2023-01-13T14:46:40.493Z,2.60
2023-01-13T14:49:23.238Z,2.72
2023-01-13T14:51:49.626Z,3.70
2023-01-13T14:54:34.587Z,2.67
2023-01-13T14:57:12.912Z,3.35
2023-01-13T14:59:51.812Z,2.88
2023-01-13T15:02:30.295Z,2.42
2023-01-13T15:04:59.074Z,2.72
2023-01-13T15:07:26.744Z,3.08
2023-01-13T15:09:54.987Z,3.33
2023-01-13T15:12:40.519Z,3.55
2023-01-13T15:15:18.977Z,3.70
2023-01-13T15:17:46.880Z,3.08
2023-01-13T15:20:14.065Z,3.42
2023-01-13T15:22:40.322Z,4.20
2023-01-13T15:25:09.367Z,3.45
2023-01-13T15:27:36.655Z,2.25
2023-01-13T15:30:03.822Z,2.83
2023-01-13T15:32:30.087Z,3.15
2023-01-13T15:34:56.378Z,2.50
2023-01-13T15:37:24.470Z,2.70
2023-01-13T15:39:50.778Z,2.92
2023-01-13T15:42:35.519Z,3.00
2023-01-13T15:45:20.330Z,2.67
2023-01-13T15:47:46.615Z,3.15
2023-01-13T15:50:14.168Z,2.47
2023-01-13T15:52:40.541Z,3.28
2023-01-13T15:55:07.051Z,3.60
2023-01-13T15:57:34.968Z,3.95
2023-01-13T16:00:03.021Z,3.03
2023-01-13T16:02:30.917Z,4.45
2023-01-13T16:04:57.304Z,3.38
2023-01-13T16:07:24.791Z,4.15
2023-01-13T16:09:51.463Z,3.10
2023-01-13T16:12:17.806Z,5.15
2023-01-13T16:14:44.160Z,4.00
2023-01-13T16:17:21.080Z,3.42
2023-01-13T16:19:47.368Z,4.10
2023-01-13T16:22:14.622Z,4.10
2023-01-13T16:24:41.290Z,4.20
2023-01-13T16:27:18.039Z,3.22
2023-01-13T16:29:44.522Z,3.88
2023-01-13T16:32:11.115Z,3.30
2023-01-13T16:34:37.664Z,3.83
2023-01-13T16:37:03.998Z,3.58
2023-01-13T16:39:30.957Z,2.83
2023-01-13T16:41:57.312Z,3.95
2023-01-13T16:44:23.615Z,4.15
2023-01-13T16:46:50.033Z,3.10
2023-01-13T16:49:17.453Z,3.20
2023-01-13T16:51:43.860Z,3.15
2023-01-13T16:54:10.153Z,2.75
2023-01-13T16:56:36.561Z,3.30
2023-01-13T16:59:08.016Z,4.20
2023-01-13T17:01:36.444Z,3.40
2023-01-13T17:04:03.445Z,3.35
2023-01-13T17:06:37.561Z,2.17
2023-01-13T17:09:04.875Z,2.25
2023-01-13T17:11:31.317Z,2.65
2023-01-13T17:13:57.714Z,2.85
2023-01-13T17:16:25.951Z,2.80
2023-01-13T17:18:52.623Z,2.88
2023-01-13T17:21:19.294Z,2.90
2023-01-13T17:23:45.957Z,1.40
2023-01-13T17:26:21.278Z,2.00
2023-01-13T17:28:47.586Z,1.42
2023-01-13T17:31:13.940Z,0.95
2023-01-13T17:33:40.173Z,1.50
2023-01-13T17:36:06.660Z,1.50
2023-01-13T17:38:33.057Z,0.93
2023-01-13T17:41:04.073Z,0.98
2023-01-13T17:43:31.086Z,0.90
2023-01-13T17:45:57.882Z,0.80
2023-01-13T17:48:24.513Z,1.00
2023-01-13T17:50:51.866Z,1.17
2023-01-13T17:53:18.549Z,2.00
2023-01-13T17:55:54.649Z,2.30
2023-01-13T17:58:21.532Z,1.75
2023-01-13T18:00:48.086Z,3.70
2023-01-13T18:03:14.961Z,2.72
2023-01-13T18:05:41.548Z,2.00
2023-01-13T18:08:08.079Z,1.88
2023-01-13T18:10:34.566Z,2.38
2023-01-13T18:13:03.336Z,2.55
2023-01-13T18:15:30.163Z,3.30
2023-01-13T18:17:56.572Z,2.42
2023-01-13T18:20:41.617Z,2.50
2023-01-13T18:23:36.704Z,2.10
2023-01-13T18:26:37.606Z,2.97
2023-01-13T18:31:30.415Z,4.75
2023-01-13T18:33:56.845Z,3.10
2023-01-13T18:36:23.293Z,3.30
2023-01-13T18:38:50.433Z,2.85
2023-01-13T18:41:35.716Z,3.42
2023-01-13T18:44:02.907Z,2.67
2023-01-13T18:46:29.250Z,2.08
2023-01-13T18:48:55.744Z,2.72
2023-01-13T18:51:22.111Z,2.28
2023-01-13T18:53:48.428Z,2.33
2023-01-13T18:56:15.234Z,2.65
2023-01-13T18:58:48.113Z,2.83
2023-01-13T19:01:14.527Z,2.22
2023-01-13T19:03:40.903Z,2.28
2023-01-13T19:06:12.883Z,2.30
2023-01-13T19:08:39.247Z,2.60
2023-01-13T19:11:06.183Z,2.05
2023-01-13T19:13:32.659Z,1.92
2023-01-13T19:16:03.572Z,2.65
2023-01-13T19:18:29.871Z,2.25
2023-01-13T19:21:00.277Z,2.80
2023-01-13T19:23:26.723Z,2.28
2023-01-13T19:25:54.217Z,2.80
2023-01-13T19:28:21.922Z,2.03
2023-01-13T19:30:50.650Z,2.38
2023-01-13T19:33:17.275Z,2.58
2023-01-13T19:35:43.531Z,2.22
2023-01-13T19:38:09.828Z,3.15
2023-01-13T19:40:36.075Z,2.40
2023-01-13T19:43:20.835Z,2.78
2023-01-13T19:45:50.946Z,2.85
2023-01-13T19:48:17.195Z,3.53
2023-01-13T19:50:43.442Z,3.40
2023-01-13T19:53:15.507Z,3.05
2023-01-13T19:55:49.161Z,2.92
2023-01-13T19:58:15.954Z,2.97
2023-01-13T20:00:47.148Z,2.33
2023-01-13T20:03:14.406Z,2.40
2023-01-13T20:05:40.707Z,1.88
2023-01-13T20:08:07.328Z,2.20
2023-01-13T20:10:33.631Z,2.47
2023-01-13T20:12:59.927Z,2.70
2023-01-13T20:15:26.216Z,2.40
2023-01-13T20:17:52.495Z,1.80
2023-01-13T20:20:20.345Z,1.35
2023-01-13T20:22:46.956Z,1.88
2023-01-13T20:25:16.644Z,1.52
2023-01-13T20:27:43.565Z,1.77
2023-01-13T20:30:13.238Z,1.60
2023-01-13T20:32:43.074Z,1.90
2023-01-13T20:35:10.006Z,1.93
2023-01-13T20:37:40.168Z,2.20
2023-01-13T20:40:07.215Z,2.95
2023-01-13T20:42:44.390Z,1.85
2023-01-13T20:45:11.846Z,3.45
2023-01-13T20:47:38.156Z,1.80
2023-01-13T20:50:04.554Z,2.38
2023-01-13T20:52:30.825Z,2.45
2023-01-13T20:54:57.100Z,2.85
2023-01-13T20:57:23.442Z,2.38
2023-01-13T20:59:49.748Z,2.35
2023-01-13T21:02:16.585Z,3.08
2023-01-13T21:04:43.206Z,1.90
2023-01-13T21:07:09.885Z,2.28
2023-01-13T21:09:36.450Z,2.92
2023-01-13T21:12:21.461Z,2.53
2023-01-13T21:15:06.213Z,2.55
2023-01-13T21:17:51.024Z,3.45
2023-01-13T21:20:17.554Z,2.45
2023-01-13T21:22:44.539Z,2.88
2023-01-13T21:25:12.402Z,2.67
2023-01-13T21:27:38.680Z,3.55
2023-01-13T21:30:05.235Z,3.00
2023-01-13T21:32:31.643Z,3.25
2023-01-13T21:35:01.919Z,3.65
2023-01-13T21:37:28.171Z,5.18
2023-01-13T21:39:54.450Z,3.50
2023-01-13T21:42:39.184Z,3.10
2023-01-13T21:45:24.411Z,3.42
2023-01-13T21:47:50.852Z,3.45
2023-01-13T21:50:21.513Z,3.72
2023-01-13T21:55:20.276Z,3.42
2023-01-13T21:57:47.102Z,3.13
2023-01-13T22:00:13.626Z,3.15
2023-01-13T22:02:40.037Z,3.58
2023-01-13T22:05:07.334Z,3.42
2023-01-13T22:07:34.531Z,3.55
2023-01-13T22:10:01.079Z,4.15
2023-01-13T22:12:27.915Z,3.40
2023-01-13T22:14:54.664Z,2.50
2023-01-13T22:17:21.693Z,3.50
2023-01-13T22:19:48.823Z,3.03
2023-01-13T22:22:16.412Z,3.70
2023-01-13T22:24:43.563Z,7.30
2023-01-13T22:27:10.559Z,3.30
2023-01-13T22:29:37.746Z,3.40
2023-01-13T22:32:04.573Z,3.50
2023-01-13T22:34:30.932Z,4.40
2023-01-13T22:36:57.478Z,2.95
2023-01-13T22:39:23.826Z,3.55
2023-01-13T22:41:50.124Z,3.85
2023-01-13T22:44:16.384Z,2.78
2023-01-13T22:46:42.662Z,3.25
2023-01-13T22:49:09.340Z,2.53
2023-01-13T22:51:35.647Z,3.55
2023-01-13T22:54:02.021Z,3.15
2023-01-13T22:56:28.384Z,3.08
2023-01-13T22:58:55.172Z,3.08
2023-01-13T23:01:22.112Z,2.38
2023-01-13T23:03:48.410Z,3.15
2023-01-13T23:06:14.900Z,2.65
2023-01-13T23:08:41.291Z,3.28
2023-01-13T23:11:08.156Z,3.55
2023-01-13T23:13:34.843Z,3.20
2023-01-13T23:16:01.886Z,3.53
2023-01-13T23:18:28.175Z,3.85
2023-01-13T23:20:54.476Z,2.92
2023-01-13T23:23:20.779Z,2.80
2023-01-13T23:25:50.789Z,3.55
2023-01-13T23:28:17.058Z,2.85
2023-01-13T23:30:43.445Z,3.10
2023-01-13T23:33:09.782Z,3.70
2023-01-13T23:35:36.061Z,3.10
2023-01-13T23:38:02.342Z,3.03
2023-01-13T23:40:28.639Z,3.30
2023-01-13T23:42:55.007Z,3.50
2023-01-13T23:45:21.300Z,3.20
2023-01-13T23:47:47.543Z,3.55
2023-01-13T23:50:13.823Z,3.80
2023-01-13T23:52:40.077Z,3.55
2023-01-13T23:55:06.496Z,3.22
2023-01-13T23:57:32.822Z,3.13
2023-01-13T23:59:59.112Z,3.10
